Terminal Aerodrome Forecast
Issued by NWS Charleston, WV

Home | Current Version | Previous Version | Text Only | Print | Product List | Glossary On
Versions: 1 2 3 4 5 6 7 8 9 10 11 12 13 14 15 16 17 18 19 20 21 22 23
000
FTUS41 KRLX 230253 AAA
TAFEKN
TAF AMD
KEKN 230253Z 2303/2324 15010KT P6SM SCT250
     FM231600 15012G20KT P6SM OVC070
     FM231800 15015G24KT P6SM OVC045
     FM232100 15015G23KT 4SM SHRA OVC040
     FM232300 15012G22KT 2SM SHRA OVC030=

USA.gov is the U.S. government's official web portal to all federal, state and local government web resources and services.